Time;durP1;ratioP1;P1;durP2;ratioP2;P2;SDS_P1;SDS_P2;PMS_P1;PMS_P2;Temp;Humidity;BMP_temperature;BMP_pressure;BME280_temperature;BME280_humidity;BME280_pressure;Samples;Min_cycle;Max_cycle;Signal;HPM_P1;HPM_P2
2023/05/24 00:01:47;;;;;;;160.60;152.20;;;6.50;99.90;;;;;;4986607;28;20505;-75
2023/05/24 00:04:13;;;;;;;175.90;166.48;;;6.60;99.90;;;;;;4985609;28;20046;-76
2023/05/24 00:06:41;;;;;;;180.50;171.02;;;6.60;99.90;;;;;;4986351;28;20043;-75
2023/05/24 00:09:07;;;;;;;177.75;168.73;;;6.60;99.90;;;;;;4985730;28;20038;-75
2023/05/24 00:11:33;;;;;;;191.23;181.18;;;6.60;99.90;;;;;;4975009;28;20034;-75
2023/05/24 00:13:58;;;;;;;193.88;183.95;;;6.70;99.90;;;;;;4970901;28;20066;-75
2023/05/24 00:16:24;;;;;;;209.25;199.02;;;6.80;99.90;;;;;;4985414;28;20147;-76
2023/05/24 00:18:51;;;;;;;195.75;186.20;;;6.90;99.90;;;;;;4986343;28;20050;-76
2023/05/24 00:21:16;;;;;;;191.93;181.55;;;7.00;99.90;;;;;;4986347;28;20939;-76
2023/05/24 00:23:42;;;;;;;196.13;185.85;;;7.10;99.90;;;;;;4985790;28;20054;-76
2023/05/24 00:26:08;;;;;;;186.02;177.00;;;7.10;99.90;;;;;;4987053;28;20050;-76
2023/05/24 00:28:34;;;;;;;194.27;184.93;;;7.20;99.90;;;;;;4989117;28;20509;-75
2023/05/24 00:31:00;;;;;;;199.05;189.02;;;7.20;99.90;;;;;;4991420;28;20498;-75
2023/05/24 00:33:27;;;;;;;173.70;165.00;;;7.20;99.90;;;;;;4988674;28;20038;-75
2023/05/24 00:35:55;;;;;;;167.02;158.48;;;7.20;99.90;;;;;;4974080;28;20061;-75
2023/05/24 00:38:25;;;;;;;162.25;154.00;;;7.20;99.90;;;;;;4995402;28;20042;-75
2023/05/24 00:40:51;;;;;;;158.85;150.32;;;7.30;99.90;;;;;;4990308;28;20060;-76
2023/05/24 00:43:17;;;;;;;137.88;130.10;;;7.20;99.90;;;;;;4987805;28;20046;-76
2023/05/24 00:45:44;;;;;;;139.77;131.82;;;7.20;99.90;;;;;;4973443;28;20278;-74
2023/05/24 00:48:10;;;;;;;143.32;135.57;;;7.20;99.90;;;;;;4989014;28;20498;-76
2023/05/24 00:50:38;;;;;;;140.90;133.52;;;7.20;99.90;;;;;;4973215;28;20084;-76
2023/05/24 00:53:04;;;;;;;154.35;146.32;;;7.20;99.90;;;;;;4981579;28;20050;-75
2023/05/24 00:55:30;;;;;;;150.13;142.05;;;7.20;99.90;;;;;;4988359;28;20050;-75
2023/05/24 00:57:59;;;;;;;159.02;150.88;;;7.10;99.90;;;;;;4989673;28;20536;-76
2023/05/24 01:00:26;;;;;;;163.93;155.15;;;7.10;99.90;;;;;;4972153;28;20042;-75
2023/05/24 01:02:53;;;;;;;154.75;145.90;;;7.20;99.90;;;;;;4986763;28;20494;-75
2023/05/24 01:05:20;;;;;;;153.25;144.70;;;7.10;99.90;;;;;;4988465;28;20162;-75
2023/05/24 01:08:19;;;;;;;153.93;145.65;;;7.20;99.90;;;;;;4989118;28;20039;-75
2023/05/24 01:11:00;;;;;;;143.00;134.82;;;7.20;99.90;;;;;;4983341;28;20034;-75
2023/05/24 01:13:47;;;;;;;147.77;139.43;;;7.20;99.90;;;;;;4983439;28;20529;-75
2023/05/24 01:16:25;;;;;;;146.77;138.38;;;7.20;99.90;;;;;;4988271;28;20046;-75
2023/05/24 01:18:59;;;;;;;153.38;144.50;;;7.10;99.90;;;;;;4988285;28;20164;-75
2023/05/24 01:21:30;;;;;;;146.27;138.25;;;7.10;99.90;;;;;;4974528;28;20045;-75
2023/05/24 01:24:16;;;;;;;148.05;140.05;;;7.10;99.90;;;;;;4990957;28;20963;-75
2023/05/24 01:27:08;;;;;;;146.95;139.18;;;7.10;99.90;;;;;;4972590;28;20089;-75
2023/05/24 01:29:34;;;;;;;139.13;131.23;;;7.20;99.90;;;;;;4990739;28;20417;-75
2023/05/24 01:32:01;;;;;;;140.07;132.95;;;7.20;99.90;;;;;;4988303;28;20073;-76
2023/05/24 01:34:27;;;;;;;150.27;142.15;;;7.10;99.90;;;;;;4988762;28;20050;-75
2023/05/24 01:36:52;;;;;;;144.02;136.27;;;7.10;99.90;;;;;;4985439;28;20034;-76
2023/05/24 01:39:20;;;;;;;135.80;128.60;;;7.10;99.90;;;;;;4985938;28;20085;-75
2023/05/24 01:42:29;;;;;;;140.68;132.68;;;7.20;99.90;;;;;;4988574;28;20054;-75
2023/05/24 01:45:27;;;;;;;133.93;127.05;;;7.20;99.90;;;;;;4982780;28;20117;-75
2023/05/24 01:47:56;;;;;;;131.82;124.50;;;7.40;99.90;;;;;;4990573;28;20172;-75
2023/05/24 01:50:30;;;;;;;137.90;130.25;;;7.50;99.90;;;;;;4990063;28;20081;-76
2023/05/24 01:52:57;;;;;;;;;;;7.60;99.90;;;;;;4990822;28;20050;-75
2023/05/24 01:55:27;;;;;;;118.82;111.85;;;7.70;99.90;;;;;;4989954;28;20023;-76
2023/05/24 01:57:55;;;;;;;109.43;102.95;;;7.80;99.90;;;;;;4989335;28;20133;-75
2023/05/24 02:00:21;;;;;;;105.85;99.20;;;7.80;99.90;;;;;;4974041;28;20053;-75
2023/05/24 02:02:47;;;;;;;110.15;103.93;;;7.80;99.90;;;;;;4989224;28;20057;-76
2023/05/24 02:05:12;;;;;;;115.10;108.15;;;7.80;99.90;;;;;;4974001;28;20516;-75
2023/05/24 02:07:40;;;;;;;108.13;102.13;;;7.80;99.90;;;;;;4988996;28;20041;-76
2023/05/24 02:10:06;;;;;;;114.03;107.85;;;7.90;99.90;;;;;;5005192;28;20052;-76
2023/05/24 02:12:32;;;;;;;116.55;110.15;;;7.90;99.90;;;;;;4989704;28;20052;-75
2023/05/24 02:14:58;;;;;;;118.13;111.45;;;7.90;99.90;;;;;;4990315;28;20089;-76
2023/05/24 02:17:25;;;;;;;125.93;118.85;;;7.90;99.90;;;;;;4989592;28;20060;-76
2023/05/24 02:19:51;;;;;;;115.97;109.28;;;7.90;99.90;;;;;;4989642;28;20501;-76
2023/05/24 02:22:17;;;;;;;116.03;109.78;;;8.00;99.90;;;;;;4973521;28;20073;-76
2023/05/24 02:24:42;;;;;;;117.65;110.57;;;8.00;99.90;;;;;;4986083;28;20062;-76
2023/05/24 02:27:08;;;;;;;114.50;107.82;;;8.10;99.90;;;;;;4987799;28;20039;-76
2023/05/24 02:29:34;;;;;;;115.63;109.25;;;8.10;99.90;;;;;;4989605;28;20072;-76
2023/05/24 02:31:59;;;;;;;124.50;117.57;;;8.10;99.90;;;;;;4973643;28;20042;-76
2023/05/24 02:34:25;;;;;;;128.90;122.03;;;8.10;99.90;;;;;;4988250;28;20402;-76
2023/05/24 02:36:53;;;;;;;122.65;115.88;;;8.20;99.90;;;;;;4988082;28;20053;-76
2023/05/24 02:39:18;;;;;;;121.00;114.22;;;8.20;99.90;;;;;;4987552;28;20042;-76
2023/05/24 02:41:44;;;;;;;120.07;113.43;;;8.20;99.90;;;;;;4987846;28;20042;-76
2023/05/24 02:44:10;;;;;;;114.78;108.40;;;8.20;99.90;;;;;;4983254;28;20062;-75
2023/05/24 02:46:36;;;;;;;116.63;110.60;;;8.20;99.90;;;;;;4987816;28;20046;-76
2023/05/24 02:49:02;;;;;;;116.45;109.47;;;8.20;99.90;;;;;;4983700;28;20521;-76
2023/05/24 02:51:27;;;;;;;114.32;108.15;;;8.20;99.90;;;;;;4987970;28;20057;-76
2023/05/24 02:53:53;;;;;;;112.43;106.15;;;8.20;99.90;;;;;;4986616;28;20170;-76
2023/05/24 02:56:18;;;;;;;113.10;106.20;;;8.20;99.90;;;;;;4987551;28;20064;-76
2023/05/24 02:58:44;;;;;;;108.40;102.15;;;8.20;99.90;;;;;;4986418;28;20046;-76
2023/05/24 03:01:14;;;;;;;109.63;102.93;;;8.20;99.90;;;;;;4987086;28;20350;-76
2023/05/24 03:03:39;;;;;;;109.82;103.47;;;8.20;99.90;;;;;;4986059;28;20042;-76
2023/05/24 03:06:08;;;;;;;115.45;108.97;;;8.20;99.90;;;;;;4987201;28;20042;-76
2023/05/24 03:08:36;;;;;;;117.55;111.15;;;8.20;99.90;;;;;;4987534;28;20550;-75
2023/05/24 03:11:02;;;;;;;120.45;113.47;;;8.20;99.90;;;;;;4983327;28;20117;-76
2023/05/24 03:13:27;;;;;;;121.47;114.90;;;8.30;99.90;;;;;;4983676;28;20133;-75
2023/05/24 03:15:53;;;;;;;117.93;111.07;;;8.30;99.90;;;;;;4986549;28;20073;-76
2023/05/24 03:18:18;;;;;;;120.10;113.72;;;8.30;99.90;;;;;;4984314;28;20129;-76
2023/05/24 03:20:44;;;;;;;113.85;107.50;;;8.40;99.90;;;;;;4986794;28;20058;-76
2023/05/24 03:23:10;;;;;;;117.88;111.25;;;8.40;99.90;;;;;;4986561;28;20041;-76
2023/05/24 03:25:36;;;;;;;115.07;108.88;;;8.50;99.90;;;;;;4986688;28;20053;-76
2023/05/24 03:28:02;;;;;;;108.13;101.90;;;8.50;99.90;;;;;;4986028;28;20042;-75
2023/05/24 03:30:27;;;;;;;109.53;103.70;;;8.60;99.90;;;;;;4989539;28;20030;-75
2023/05/24 03:32:53;;;;;;;102.00;95.95;;;8.60;99.90;;;;;;4986036;28;20042;-76
2023/05/24 03:35:19;;;;;;;107.55;101.38;;;8.70;99.90;;;;;;4987110;28;20110;-76
2023/05/24 03:37:45;;;;;;;108.72;102.05;;;8.70;99.90;;;;;;4993582;28;20043;-74
2023/05/24 03:40:11;;;;;;;113.93;107.10;;;8.70;99.90;;;;;;4985904;28;20038;-76
2023/05/24 03:42:37;;;;;;;98.32;92.45;;;8.80;99.90;;;;;;4985550;28;20046;-76
2023/05/24 03:45:03;;;;;;;106.20;100.13;;;8.80;99.90;;;;;;4986563;28;20042;-76
2023/05/24 03:47:29;;;;;;;105.75;99.03;;;8.80;99.90;;;;;;4986687;28;20058;-76
2023/05/24 03:49:55;;;;;;;104.07;98.53;;;8.90;99.90;;;;;;4985212;28;20039;-77
2023/05/24 03:52:21;;;;;;;102.10;96.85;;;8.90;99.90;;;;;;4970362;28;20042;-75
2023/05/24 03:54:48;;;;;;;108.32;102.72;;;8.90;99.90;;;;;;4986989;28;20541;-76
2023/05/24 03:57:13;;;;;;;93.10;87.75;;;9.00;99.90;;;;;;4986481;28;20108;-76
2023/05/24 03:59:39;;;;;;;89.80;84.57;;;9.00;99.90;;;;;;4983778;28;20077;-75
2023/05/24 04:02:05;;;;;;;90.68;85.57;;;9.00;99.90;;;;;;4987214;28;20387;-76
2023/05/24 04:04:31;;;;;;;85.95;80.78;;;9.00;99.90;;;;;;4990053;28;20034;-76
2023/05/24 04:06:57;;;;;;;84.65;79.50;;;9.00;99.90;;;;;;4972136;28;20047;-77
2023/05/24 04:09:23;;;;;;;98.35;92.78;;;9.00;99.90;;;;;;4990304;28;20432;-76
2023/05/24 04:11:49;;;;;;;88.97;83.78;;;9.00;99.90;;;;;;4990665;28;20098;-76
2023/05/24 04:14:15;;;;;;;86.97;82.28;;;9.00;99.90;;;;;;4988635;28;20066;-75
2023/05/24 04:16:43;;;;;;;85.30;80.82;;;9.10;99.90;;;;;;4989887;28;20043;-76
2023/05/24 04:19:10;;;;;;;91.72;86.45;;;9.10;99.90;;;;;;4987758;28;20487;-76
2023/05/24 04:21:37;;;;;;;89.22;84.03;;;9.10;99.90;;;;;;4989553;28;20054;-76
2023/05/24 04:24:03;;;;;;;85.00;79.65;;;9.10;99.90;;;;;;4989629;28;20096;-76
2023/05/24 04:26:30;;;;;;;91.95;87.05;;;9.20;99.90;;;;;;4989801;28;20038;-76
2023/05/24 04:28:56;;;;;;;98.80;93.78;;;9.30;99.90;;;;;;4990002;28;20046;-76
2023/05/24 04:31:22;;;;;;;94.60;89.78;;;9.30;99.90;;;;;;4992379;28;20399;-76
2023/05/24 04:33:48;;;;;;;94.45;89.05;;;9.30;99.90;;;;;;4972893;28;20042;-76
2023/05/24 04:36:15;;;;;;;123.10;116.68;;;9.40;99.90;;;;;;4990529;28;20471;-76
2023/05/24 04:38:40;;;;;;;108.95;102.93;;;9.40;99.90;;;;;;4995896;28;20417;-76
2023/05/24 04:41:06;;;;;;;106.38;100.63;;;9.50;99.90;;;;;;4987805;28;20052;-76
2023/05/24 04:43:35;;;;;;;109.95;104.22;;;9.60;99.90;;;;;;4989389;28;20121;-76
2023/05/24 04:46:01;;;;;;;104.95;98.93;;;9.70;99.90;;;;;;4989439;28;20137;-77
2023/05/24 04:48:27;;;;;;;101.15;95.97;;;9.80;99.90;;;;;;4988102;28;20121;-77
2023/05/24 04:50:54;;;;;;;100.45;95.18;;;9.90;99.90;;;;;;4974044;28;20430;-76
2023/05/24 04:53:21;;;;;;;80.82;76.05;;;10.00;99.90;;;;;;4989063;28;20042;-76
2023/05/24 04:55:48;;;;;;;79.82;74.78;;;10.20;99.90;;;;;;4972647;28;20046;-76
2023/05/24 04:58:14;;;;;;;93.07;87.38;;;10.30;99.90;;;;;;4972893;28;20053;-78
2023/05/24 05:00:39;;;;;;;79.60;74.18;;;10.40;99.90;;;;;;4971765;28;20046;-77
2023/05/24 05:03:06;;;;;;;87.82;82.40;;;10.50;99.90;;;;;;4988914;28;20422;-76
2023/05/24 05:05:31;;;;;;;66.53;62.40;;;10.60;99.90;;;;;;4968187;28;20577;-76
2023/05/24 05:07:57;;;;;;;70.00;65.05;;;10.60;99.90;;;;;;4989036;28;20124;-76
2023/05/24 05:10:23;;;;;;;76.57;71.82;;;10.80;99.90;;;;;;4988606;28;20042;-76
2023/05/24 05:12:49;;;;;;;70.78;66.63;;;10.80;99.90;;;;;;4982320;28;20529;-75
2023/05/24 05:15:14;;;;;;;65.80;61.53;;;10.80;99.90;;;;;;4988273;28;20538;-76
2023/05/24 05:17:40;;;;;;;77.72;73.35;;;10.80;99.90;;;;;;4987673;28;20069;-75
2023/05/24 05:20:06;;;;;;;65.80;61.78;;;10.70;99.90;;;;;;4988793;28;20137;-76
2023/05/24 05:22:32;;;;;;;65.50;61.08;;;10.70;99.90;;;;;;4972590;28;20581;-76
2023/05/24 05:24:59;;;;;;;67.30;62.78;;;10.70;99.90;;;;;;4971199;28;20045;-75
2023/05/24 05:27:24;;;;;;;64.50;60.03;;;10.80;99.90;;;;;;4989234;28;20117;-76
2023/05/24 05:29:50;;;;;;;63.92;59.47;;;10.80;99.90;;;;;;4972055;28;20224;-75
2023/05/24 05:32:16;;;;;;;65.68;61.75;;;10.80;99.90;;;;;;4988988;28;20113;-76
2023/05/24 05:34:41;;;;;;;96.95;91.60;;;10.80;99.90;;;;;;4971873;28;20034;-75
2023/05/24 05:37:07;;;;;;;63.22;59.47;;;10.80;99.90;;;;;;4991099;28;20892;-75
2023/05/24 05:39:32;;;;;;;67.28;63.17;;;10.80;99.90;;;;;;4972667;28;20050;-76
2023/05/24 05:41:58;;;;;;;75.32;70.72;;;10.80;99.90;;;;;;4986984;28;20048;-76
2023/05/24 05:44:24;;;;;;;66.50;62.30;;;10.80;99.90;;;;;;4988433;28;20379;-76
2023/05/24 05:46:50;;;;;;;73.15;68.70;;;10.70;99.90;;;;;;4970201;28;20042;-75
2023/05/24 05:49:17;;;;;;;104.00;98.13;;;10.80;99.90;;;;;;4988240;28;20034;-75
2023/05/24 05:51:43;;;;;;;87.35;81.70;;;10.80;99.90;;;;;;4988815;28;20038;-75
2023/05/24 05:54:13;;;;;;;74.90;70.55;;;10.80;99.90;;;;;;4987637;28;20045;-76
2023/05/24 05:56:46;;;;;;;72.28;68.13;;;10.90;99.90;;;;;;4987293;28;20505;-76
2023/05/24 05:59:15;;;;;;;65.63;61.67;;;10.90;99.90;;;;;;4966607;28;20050;-75
2023/05/24 06:01:41;;;;;;;72.03;67.15;;;10.90;99.90;;;;;;4987357;28;20073;-74
2023/05/24 06:04:07;;;;;;;69.10;64.90;;;10.90;99.90;;;;;;4987856;28;20045;-77
2023/05/24 06:06:33;;;;;;;77.00;72.68;;;10.90;99.90;;;;;;4988454;28;20043;-77
2023/05/24 06:08:59;;;;;;;70.03;65.78;;;10.90;99.90;;;;;;4988408;28;20148;-76
2023/05/24 06:11:25;;;;;;;65.28;61.50;;;10.90;99.90;;;;;;4979511;28;20173;-76
2023/05/24 06:13:52;;;;;;;65.60;61.58;;;10.90;99.90;;;;;;4998119;28;20498;-75
2023/05/24 06:16:18;;;;;;;72.85;68.57;;;11.00;99.90;;;;;;4987997;28;20046;-76
2023/05/24 06:18:44;;;;;;;75.90;71.45;;;11.00;99.90;;;;;;4987159;28;20172;-76
2023/05/24 06:21:10;;;;;;;70.78;66.28;;;11.10;99.90;;;;;;4972303;28;20137;-77
2023/05/24 06:23:37;;;;;;;77.13;72.65;;;11.10;99.90;;;;;;4968782;28;20453;-76
2023/05/24 06:26:03;;;;;;;82.72;78.10;;;11.20;99.90;;;;;;4988083;28;20577;-76
2023/05/24 06:28:28;;;;;;;71.25;67.07;;;11.30;99.90;;;;;;4986678;28;20469;-75
2023/05/24 06:30:54;;;;;;;59.70;56.00;;;11.40;99.90;;;;;;4988070;28;20046;-75
2023/05/24 06:33:21;;;;;;;67.35;63.05;;;11.40;99.90;;;;;;4987516;28;20042;-76
2023/05/24 06:35:47;;;;;;;65.78;62.17;;;11.50;99.90;;;;;;4971877;28;20388;-76
2023/05/24 06:38:12;;;;;;;67.32;63.50;;;11.50;99.90;;;;;;4988184;28;20049;-76
2023/05/24 06:40:38;;;;;;;60.88;57.08;;;11.60;99.90;;;;;;4987919;28;20046;-76
2023/05/24 06:43:04;;;;;;;62.83;59.17;;;11.70;99.90;;;;;;4987663;28;20049;-76
2023/05/24 06:45:30;;;;;;;53.85;50.60;;;11.80;99.90;;;;;;4986670;28;20509;-76
2023/05/24 06:47:55;;;;;;;54.33;50.70;;;11.90;99.90;;;;;;4987133;28;20061;-75
2023/05/24 06:50:22;;;;;;;63.75;60.33;;;12.10;99.90;;;;;;4986061;28;20041;-75
2023/05/24 06:52:47;;;;;;;59.78;55.85;;;12.10;99.90;;;;;;4987661;28;20046;-74
2023/05/24 06:55:13;;;;;;;49.33;45.90;;;12.20;99.90;;;;;;4986764;28;20038;-76
2023/05/24 06:57:38;;;;;;;71.80;67.65;;;12.30;99.90;;;;;;4986560;28;20077;-76
2023/05/24 07:00:11;;;;;;;62.80;58.95;;;12.30;99.90;;;;;;4987204;28;20053;-76
2023/05/24 07:02:38;;;;;;;41.45;38.70;;;12.40;99.90;;;;;;4984865;28;20088;-77
2023/05/24 07:05:05;;;;;;;41.05;38.55;;;12.50;99.90;;;;;;4987154;28;20054;-77
2023/05/24 07:07:31;;;;;;;45.75;42.85;;;12.60;99.90;;;;;;4985812;28;20097;-76
2023/05/24 07:09:56;;;;;;;54.45;51.00;;;12.90;99.90;;;;;;4986625;28;20057;-76
2023/05/24 07:12:22;;;;;;;54.78;51.08;;;13.10;99.90;;;;;;4970683;28;20035;-75
2023/05/24 07:14:48;;;;;;;58.15;54.65;;;13.10;99.90;;;;;;4985850;28;20672;-76
2023/05/24 07:17:13;;;;;;;43.45;40.50;;;13.10;99.90;;;;;;4986490;28;20052;-76
2023/05/24 07:19:40;;;;;;;57.45;54.15;;;13.10;99.90;;;;;;4970532;28;20073;-76
2023/05/24 07:22:06;;;;;;;52.72;49.30;;;13.10;99.90;;;;;;4988400;28;20077;-76
2023/05/24 07:24:31;;;;;;;49.30;46.33;;;13.20;99.90;;;;;;4982645;28;20038;-76
2023/05/24 07:26:57;;;;;;;64.70;60.85;;;13.30;99.90;;;;;;4986112;28;20499;-76
2023/05/24 07:29:23;;;;;;;72.68;68.32;;;13.50;99.90;;;;;;4970325;28;20089;-76
2023/05/24 07:31:49;;;;;;;47.35;44.08;;;13.60;99.90;;;;;;4985262;28;20129;-75
2023/05/24 07:34:15;;;;;;;43.15;40.33;;;13.60;99.90;;;;;;4984356;28;20476;-75
2023/05/24 07:36:41;;;;;;;36.83;33.88;;;13.60;99.90;;;;;;4987054;28;20145;-76
2023/05/24 07:39:09;;;;;;;35.95;33.53;;;13.50;99.90;;;;;;4984402;28;20509;-75
2023/05/24 07:41:35;;;;;;;39.75;37.15;;;13.40;99.90;;;;;;4970458;28;20532;-75
2023/05/24 07:44:01;;;;;;;36.85;33.90;;;13.40;99.90;;;;;;4982728;28;20121;-76
2023/05/24 07:46:26;;;;;;;37.72;34.88;;;13.30;99.90;;;;;;4982927;28;20045;-76
2023/05/24 07:48:52;;;;;;;40.20;37.22;;;13.30;99.90;;;;;;4983232;28;20038;-76
2023/05/24 07:51:18;;;;;;;49.33;45.95;;;13.30;99.90;;;;;;4982094;28;20549;-76
2023/05/24 07:53:43;;;;;;;39.67;36.90;;;13.30;99.90;;;;;;4982100;28;20498;-76
2023/05/24 07:56:09;;;;;;;36.75;33.58;;;13.30;99.90;;;;;;4983610;28;20056;-76
2023/05/24 07:58:34;;;;;;;37.95;35.55;;;13.30;99.90;;;;;;4982686;28;20052;-76
2023/05/24 08:01:00;;;;;;;42.05;39.33;;;13.20;99.90;;;;;;4976941;28;20073;-75
2023/05/24 08:03:26;;;;;;;43.95;40.95;;;13.30;99.90;;;;;;4981153;28;20053;-76
2023/05/24 08:05:52;;;;;;;58.60;55.30;;;13.30;99.90;;;;;;4966106;28;20104;-76
2023/05/24 08:08:18;;;;;;;44.47;41.35;;;13.40;99.90;;;;;;4977180;28;20039;-77
2023/05/24 08:10:44;;;;;;;39.05;36.10;;;13.40;99.90;;;;;;4983758;28;20535;-76
2023/05/24 08:13:10;;;;;;;49.58;46.35;;;13.40;99.90;;;;;;4983169;28;20034;-76
2023/05/24 08:15:36;;;;;;;38.13;35.42;;;13.40;99.90;;;;;;4982166;28;20491;-76
2023/05/24 08:18:02;;;;;;;40.58;37.70;;;13.40;99.90;;;;;;4982214;28;20038;-75
2023/05/24 08:20:28;;;;;;;36.05;33.55;;;13.40;99.90;;;;;;4967680;28;20691;-75
2023/05/24 08:22:53;;;;;;;37.58;34.78;;;13.40;99.90;;;;;;4983738;28;20034;-76
2023/05/24 08:25:19;;;;;;;44.22;41.40;;;13.60;99.90;;;;;;4965994;28;20034;-76
2023/05/24 08:27:45;;;;;;;45.63;42.53;;;13.70;99.90;;;;;;4983268;28;20515;-76
2023/05/24 08:30:13;;;;;;;48.13;45.42;;;13.70;99.90;;;;;;4982153;28;20096;-75
2023/05/24 08:32:38;;;;;;;47.25;44.53;;;13.70;99.90;;;;;;4980854;28;20057;-77
2023/05/24 08:35:04;;;;;;;44.72;42.30;;;13.80;99.90;;;;;;4980823;28;20042;-76
2023/05/24 08:37:32;;;;;;;95.55;90.63;;;13.90;99.90;;;;;;4984321;28;20083;-77
2023/05/24 08:39:58;;;;;;;41.97;39.35;;;14.10;99.90;;;;;;4966907;28;20042;-76
2023/05/24 08:42:24;;;;;;;50.58;47.70;;;14.30;99.90;;;;;;4984809;28;20046;-78
2023/05/24 08:44:57;;;;;;;34.47;32.22;;;14.40;99.90;;;;;;4985386;28;20055;-76
2023/05/24 08:47:23;;;;;;;43.58;41.10;;;14.50;99.90;;;;;;4984824;28;20096;-76
2023/05/24 08:49:50;;;;;;;55.08;52.10;;;14.50;99.90;;;;;;4973648;28;20513;-76
2023/05/24 08:52:16;;;;;;;60.80;57.80;;;14.50;99.90;;;;;;4974880;28;20433;-77
2023/05/24 08:54:42;;;;;;;77.15;73.15;;;14.40;99.90;;;;;;4988797;28;20030;-77
2023/05/24 08:57:10;;;;;;;42.22;39.45;;;14.40;99.90;;;;;;4972024;28;20078;-77
2023/05/24 08:59:38;;;;;;;38.25;35.65;;;14.50;99.90;;;;;;4989081;28;20161;-77
2023/05/24 09:02:05;;;;;;;60.80;57.58;;;14.60;99.90;;;;;;4985580;28;20062;-77
2023/05/24 09:04:31;;;;;;;75.72;71.88;;;14.60;99.90;;;;;;4970151;28;20153;-76
2023/05/24 09:06:57;;;;;;;55.45;52.58;;;14.70;99.90;;;;;;4972668;28;20510;-77
2023/05/24 09:09:27;;;;;;;44.00;41.50;;;14.80;99.90;;;;;;4986489;28;20466;-78
2023/05/24 09:11:57;;;;;;;49.40;46.47;;;14.90;99.90;;;;;;4983905;28;20043;-76
2023/05/24 09:14:23;;;;;;;71.85;68.03;;;15.10;99.90;;;;;;4987084;28;20049;-77
2023/05/24 09:16:49;;;;;;;38.80;36.25;;;15.30;99.90;;;;;;4989198;28;20050;-77
2023/05/24 09:19:15;;;;;;;68.78;65.22;;;15.20;99.90;;;;;;4989343;28;20050;-77
2023/05/24 09:21:41;;;;;;;58.17;54.97;;;15.10;99.90;;;;;;4988013;28;20049;-77
2023/05/24 09:24:09;;;;;;;44.13;41.60;;;15.20;99.90;;;;;;4989295;28;20042;-76
2023/05/24 09:26:35;;;;;;;76.85;73.20;;;15.50;99.90;;;;;;4988915;28;20042;-76
2023/05/24 09:29:06;;;;;;;72.38;68.80;;;15.60;99.90;;;;;;4972998;28;20140;-76
2023/05/24 09:31:33;;;;;;;54.05;51.15;;;15.60;99.90;;;;;;4987321;28;20113;-75
2023/05/24 09:33:59;;;;;;;60.67;57.28;;;15.60;99.90;;;;;;4988407;28;20070;-76
2023/05/24 09:36:28;;;;;;;62.15;58.83;;;15.50;99.90;;;;;;4977321;28;20077;-76
2023/05/24 09:39:10;;;;;;;58.42;55.03;;;15.50;99.90;;;;;;4987764;28;20050;-75
2023/05/24 09:41:36;;;;;;;65.97;62.55;;;15.60;99.90;;;;;;4984243;28;20042;-76
2023/05/24 09:44:04;;;;;;;71.10;67.57;;;15.80;99.90;;;;;;4988587;28;20521;-76
2023/05/24 09:46:37;;;;;;;52.92;50.22;;;15.60;99.90;;;;;;4971719;28;20038;-76
2023/05/24 09:49:05;;;;;;;56.72;53.78;;;15.40;99.90;;;;;;4973322;28;20393;-75
2023/05/24 09:51:31;;;;;;;100.53;95.38;;;15.30;99.90;;;;;;4986672;28;20096;-77
2023/05/24 09:54:00;;;;;;;54.22;51.53;;;15.40;99.90;;;;;;4987790;28;20478;-76
2023/05/24 09:56:26;;;;;;;72.53;68.68;;;15.60;99.90;;;;;;4987673;28;20042;-76
2023/05/24 09:58:53;;;;;;;50.58;47.75;;;15.50;99.90;;;;;;4988352;28;20042;-77
2023/05/24 10:01:22;;;;;;;48.20;45.70;;;15.50;99.90;;;;;;4969309;28;20480;-76
2023/05/24 10:03:57;;;;;;;48.47;45.70;;;15.70;99.90;;;;;;4984922;28;20050;-76
2023/05/24 10:06:23;;;;;;;54.85;51.55;;;15.80;99.90;;;;;;4986618;28;20416;-76
2023/05/24 10:08:50;;;;;;;46.53;43.63;;;15.90;99.90;;;;;;4986254;28;20042;-76
2023/05/24 10:11:17;;;;;;;40.92;38.42;;;16.10;99.90;;;;;;4988112;28;20126;-77
2023/05/24 10:13:43;;;;;;;50.38;47.53;;;16.10;99.90;;;;;;4988009;28;20067;-76
2023/05/24 10:16:09;;;;;;;50.50;47.63;;;16.10;99.90;;;;;;4988102;28;20042;-77
2023/05/24 10:18:35;;;;;;;48.30;45.40;;;15.90;99.90;;;;;;4971948;28;20085;-75
2023/05/24 10:21:01;;;;;;;57.70;54.42;;;15.70;99.90;;;;;;4986242;28;20141;-76
2023/05/24 10:23:31;;;;;;;67.90;64.45;;;15.80;99.90;;;;;;4986479;28;20057;-76
2023/05/24 10:26:08;;;;;;;75.65;71.30;;;15.90;99.90;;;;;;4971060;28;20081;-76
2023/05/24 10:28:55;;;;;;;53.53;50.38;;;16.30;99.90;;;;;;4987184;28;20046;-77
2023/05/24 10:31:28;;;;;;;55.63;52.53;;;16.60;99.90;;;;;;4985663;28;20092;-76
2023/05/24 10:33:57;;;;;;;41.53;39.03;;;16.80;99.90;;;;;;4982919;28;20043;-77
2023/05/24 10:36:24;;;;;;;52.42;49.45;;;17.00;99.90;;;;;;4984888;28;20042;-77
2023/05/24 10:38:51;;;;;;;59.03;55.70;;;17.20;99.90;;;;;;4988313;28;20099;-77
2023/05/24 10:41:17;;;;;;;45.60;42.72;;;17.20;99.90;;;;;;4979834;28;20077;-77
2023/05/24 10:43:45;;;;;;;46.13;42.88;;;17.10;99.90;;;;;;4987108;28;20046;-77
2023/05/24 10:46:15;;;;;;;46.10;43.33;;;17.10;99.90;;;;;;4978237;28;20777;-76
2023/05/24 10:48:41;;;;;;;47.05;44.28;;;17.30;99.90;;;;;;4982148;28;20449;-76
2023/05/24 10:51:31;;;;;;;50.90;47.80;;;17.30;99.90;;;;;;4973943;28;20042;-76
2023/05/24 10:53:57;;;;;;;53.08;49.85;;;17.10;99.90;;;;;;4981830;28;20558;-77
2023/05/24 10:56:25;;;;;;;27.00;25.15;;;16.90;99.90;;;;;;4969220;28;20054;-77
2023/05/24 10:58:55;;;;;;;27.27;25.38;;;16.80;99.90;;;;;;4979547;28;20046;-76
2023/05/24 11:01:41;;;;;;;50.85;47.85;;;16.60;99.90;;;;;;4981532;28;20070;-76
2023/05/24 11:04:11;;;;;;;49.88;47.20;;;16.40;99.90;;;;;;4986859;28;20050;-77
2023/05/24 11:06:54;;;;;;;31.77;29.83;;;16.30;99.90;;;;;;4984459;28;20576;-75
2023/05/24 11:09:21;;;;;;;47.00;44.30;;;16.20;99.90;;;;;;4986735;28;20049;-77
2023/05/24 11:11:48;;;;;;;76.13;72.38;;;16.10;99.90;;;;;;4986964;28;20053;-75
2023/05/24 11:14:18;;;;;;;72.43;68.97;;;16.00;99.90;;;;;;4986188;28;20034;-76
2023/05/24 11:16:45;;;;;;;51.67;48.50;;;15.90;99.90;;;;;;4987573;28;20069;-78
2023/05/24 11:19:27;;;;;;;60.45;57.17;;;15.80;99.90;;;;;;4986202;28;20056;-76
2023/05/24 11:21:57;;;;;;;52.35;49.42;;;15.70;99.90;;;;;;4982488;28;20046;-76
2023/05/24 11:24:24;;;;;;;56.42;53.33;;;15.70;99.90;;;;;;4986314;28;20046;-76
2023/05/24 11:26:50;;;;;;;106.53;100.85;;;16.10;99.90;;;;;;4995898;28;20078;-76
2023/05/24 11:29:17;;;;;;;79.72;75.95;;;16.60;99.90;;;;;;4984844;28;20034;-76
2023/05/24 11:31:56;;;;;;;56.20;53.17;;;16.80;99.90;;;;;;4985970;28;20046;-77
2023/05/24 11:34:23;;;;;;;63.38;59.92;;;17.00;99.90;;;;;;5003511;28;20042;-76
2023/05/24 11:36:50;;;;;;;28.35;26.38;;;16.90;99.90;;;;;;4986854;28;20053;-76
2023/05/24 11:39:17;;;;;;;74.03;70.07;;;16.80;99.90;;;;;;4971411;28;20034;-77
2023/05/24 11:41:43;;;;;;;58.55;55.08;;;17.10;99.90;;;;;;4986252;28;20197;-79
2023/05/24 11:44:10;;;;;;;48.97;46.17;;;17.40;99.90;;;;;;4986108;28;20054;-77
2023/05/24 11:46:37;;;;;;;33.20;30.85;;;17.20;99.90;;;;;;4985797;28;20128;-77
2023/05/24 11:49:04;;;;;;;44.63;42.10;;;16.80;99.90;;;;;;4985495;28;20069;-76
2023/05/24 11:51:32;;;;;;;51.25;48.53;;;16.50;99.90;;;;;;4986368;28;20055;-77
2023/05/24 11:53:58;;;;;;;73.85;69.80;;;16.50;99.90;;;;;;4986059;28;20049;-77
2023/05/24 11:56:26;;;;;;;83.18;79.15;;;16.20;99.90;;;;;;4985586;28;20050;-75
2023/05/24 11:59:05;;;;;;;98.15;93.40;;;16.10;99.90;;;;;;4986133;28;20129;-76
2023/05/24 12:01:31;;;;;;;68.40;64.40;;;15.90;99.90;;;;;;4985148;28;20063;-77
2023/05/24 12:03:56;;;;;;;44.88;42.10;;;15.80;99.90;;;;;;4985875;28;20052;-76
2023/05/24 12:06:22;;;;;;;78.55;74.22;;;15.70;99.90;;;;;;4982392;28;20530;-77
2023/05/24 12:08:48;;;;;;;54.45;50.95;;;15.60;99.90;;;;;;4997807;28;20034;-76
2023/05/24 12:11:15;;;;;;;48.28;45.55;;;15.40;99.90;;;;;;4986489;28;20042;-76
2023/05/24 12:13:41;;;;;;;41.80;39.35;;;15.50;99.90;;;;;;4986353;28;20039;-77
2023/05/24 12:16:07;;;;;;;45.05;42.03;;;15.60;99.90;;;;;;4984861;28;20065;-77
2023/05/24 12:18:32;;;;;;;38.78;36.47;;;15.60;99.90;;;;;;4986216;28;20042;-76
2023/05/24 12:20:58;;;;;;;39.97;37.35;;;15.50;99.90;;;;;;4991437;28;20038;-77
2023/05/24 12:23:31;;;;;;;49.15;46.20;;;15.40;99.90;;;;;;4989626;28;20510;-75
2023/05/24 12:25:58;;;;;;;44.95;42.17;;;15.30;99.90;;;;;;4989570;28;20502;-76
2023/05/24 12:28:24;;;;;;;49.90;46.45;;;15.30;99.90;;;;;;4989486;28;20034;-76